Time;durP1;ratioP1;P1;durP2;ratioP2;P2;SDS_P1;SDS_P2;PMS_P1;PMS_P2;Temp;Humidity;BMP_temperature;BMP_pressure;BME280_temperature;BME280_humidity;BME280_pressure;Samples;Min_cycle;Max_cycle;Signal;HPM_P1;HPM_P2
2023/06/17 00:01:38;;;;;;;;;;;;;;;13.39;100.00;101624.81;4974428;28;19922;-76
2023/06/17 00:04:03;;;;;;;;;;;;;;;13.31;100.00;101623.56;4973850;28;19972;-76
2023/06/17 00:06:28;;;;;;;;;;;;;;;13.30;100.00;101621.84;4961881;28;19921;-76
2023/06/17 00:08:55;;;;;;;;;;;;;;;13.31;100.00;101623.56;4982674;28;19917;-76
2023/06/17 00:11:20;;;;;;;;;;;;;;;13.33;100.00;101624.31;4975888;28;19977;-76
2023/06/17 00:13:46;;;;;;;;;;;;;;;13.34;100.00;101625.19;4973935;28;20324;-76
2023/06/17 00:16:12;;;;;;;;;;;;;;;13.31;100.00;101625.44;4959986;28;20336;-76
2023/06/17 00:18:39;;;;;;;;;;;;;;;13.22;100.00;101618.03;4977460;28;19934;-76
2023/06/17 00:21:04;;;;;;;;;;;;;;;13.12;100.00;101616.03;4998760;28;19918;-76
2023/06/17 00:23:30;;;;;;;;;;;;;;;13.05;100.00;101618.34;4989877;28;20517;-76
2023/06/17 00:25:56;;;;;;;;;;;;;;;13.01;100.00;101616.00;4992609;28;19964;-76
2023/06/17 00:28:21;;;;;;;;;;;;;;;12.99;100.00;101618.78;4972810;28;20005;-76
2023/06/17 00:30:46;;;;;;;;;;;;;;;12.95;100.00;101614.66;4991038;28;19921;-76
2023/06/17 00:33:12;;;;;;;;;;;;;;;12.94;100.00;101615.63;4973756;28;19928;-76
2023/06/17 00:35:37;;;;;;;;;;;;;;;12.89;100.00;101604.31;4984726;28;19926;-76
2023/06/17 00:38:02;;;;;;;;;;;;;;;12.83;100.00;101607.47;4972078;28;20511;-76
2023/06/17 00:40:27;;;;;;;;;;;;;;;12.76;100.00;101601.69;4981097;28;20468;-76
2023/06/17 00:42:52;;;;;;;;;;;;;;;12.71;100.00;101606.56;4972043;28;20379;-76
2023/06/17 00:45:18;;;;;;;;;;;;;;;12.66;100.00;101606.03;4978327;28;19922;-76
2023/06/17 00:47:43;;;;;;;;;;;;;;;12.34;100.00;101550.91;4970245;28;19929;-76
2023/06/17 00:50:09;;;;;;;;;;;;;;;12.57;100.00;101600.38;4975689;28;19921;-75
2023/06/17 00:52:34;;;;;;;;;;;;;;;12.52;100.00;101598.97;4970279;28;20352;-76
2023/06/17 00:54:59;;;;;;;;;;;;;;;12.50;100.00;101603.63;4972376;28;19960;-75
2023/06/17 00:57:25;;;;;;;;;;;;;;;12.47;100.00;101598.44;4974059;28;20295;-75
2023/06/17 00:59:50;;;;;;;;;;;;;;;12.46;100.00;101605.69;4972565;28;20470;-75
2023/06/17 01:02:15;;;;;;;;;;;;;;;12.46;100.00;101597.59;4991654;28;20080;-76
2023/06/17 01:04:42;;;;;;;;;;;;;;;12.44;100.00;101603.13;4972883;28;20451;-76
2023/06/17 01:07:13;;;;;;;;;;;;;;;12.45;100.00;101603.97;4973097;28;19922;-75
2023/06/17 01:09:39;;;;;;;;;;;;;;;12.44;100.00;101605.81;4976356;28;20364;-76
2023/06/17 01:12:05;;;;;;;;;;;;;;;12.45;100.00;101603.97;4981837;28;19924;-76
2023/06/17 01:14:30;;;;;;;;;;;;;;;12.41;100.00;101600.66;4976245;28;19926;-76
2023/06/17 01:16:55;;;;;;;;;;;;;;;12.37;100.00;101598.28;4974125;28;19922;-76
2023/06/17 01:19:21;;;;;;;;;;;;;;;12.32;100.00;101593.25;4967135;28;19933;-76
2023/06/17 01:21:48;;;;;;;;;;;;;;;12.26;100.00;101597.25;4973334;28;20433;-76
2023/06/17 01:24:25;;;;;;;;;;;;;;;12.20;100.00;101599.50;4987868;28;19921;-76
2023/06/17 01:26:55;;;;;;;;;;;;;;;12.14;100.00;101598.13;4973355;28;19918;-76
2023/06/17 01:29:22;;;;;;;;;;;;;;;12.08;100.00;101598.56;4974583;28;20336;-76
2023/06/17 01:31:49;;;;;;;;;;;;;;;12.03;100.00;101596.22;4972669;28;19930;-76
2023/06/17 01:34:14;;;;;;;;;;;;;;;11.98;100.00;101601.03;4971792;28;19960;-76
2023/06/17 01:36:39;;;;;;;;;;;;;;;11.96;100.00;101600.28;4974831;28;20018;-76
2023/06/17 01:39:05;;;;;;;;;;;;;;;11.92;100.00;101593.41;4975083;28;19993;-76
2023/06/17 01:41:32;;;;;;;;;;;;;;;11.86;100.00;101592.00;4978011;28;20056;-76
2023/06/17 01:43:58;;;;;;;;;;;;;;;11.76;100.00;101586.44;4996569;28;19938;-76
2023/06/17 01:46:24;;;;;;;;;;;;;;;11.74;100.00;101591.06;4975223;28;19931;-76
2023/06/17 01:48:51;;;;;;;;;;;;;;;11.73;100.00;101592.00;4980771;28;20377;-76
2023/06/17 01:51:16;;;;;;;;;;;;;;;11.71;100.00;101591.25;4973960;28;19951;-76
2023/06/17 01:53:42;;;;;;;;;;;;;;;11.67;100.00;101597.81;4972262;28;19953;-76
2023/06/17 01:56:07;;;;;;;;;;;;;;;11.63;100.00;101593.66;4974826;28;20130;-76
2023/06/17 01:58:32;;;;;;;;;;;;;;;11.55;100.00;101592.34;4974019;28;19925;-76
2023/06/17 02:00:57;;;;;;;;;;;;;;;11.50;100.00;101597.19;4976573;28;19933;-76
2023/06/17 02:03:23;;;;;;;;;;;;;;;11.35;100.00;101574.06;4958021;28;19965;-76
2023/06/17 02:05:48;;;;;;;;;;;;;;;11.50;100.00;101585.59;4980079;28;20036;-76
2023/06/17 02:08:15;;;;;;;;;;;;;;;11.51;100.00;101595.38;4979013;28;19972;-76
2023/06/17 02:10:40;;;;;;;;;;;;;;;11.51;100.00;101588.16;4998069;28;20485;-76
2023/06/17 02:13:08;;;;;;;;;;;;;;;11.49;100.00;101589.25;4978475;28;20470;-76
2023/06/17 02:15:33;;;;;;;;;;;;;;;11.49;100.00;101589.25;4989107;28;19973;-76
2023/06/17 02:17:59;;;;;;;;;;;;;;;11.50;100.00;101583.75;4971931;28;20067;-76
2023/06/17 02:20:24;;;;;;;;;;;;;;;11.50;100.00;101589.13;4989296;28;20334;-76
2023/06/17 02:22:49;;;;;;;;;;;;;;;11.46;100.00;101587.59;4973195;28;20631;-76
2023/06/17 02:25:15;;;;;;;;;;;;;;;11.43;100.00;101578.91;4972677;28;19926;-76
2023/06/17 02:27:40;;;;;;;;;;;;;;;11.36;100.00;101576.63;4972803;28;20280;-76
2023/06/17 02:30:06;;;;;;;;;;;;;;;11.34;100.00;101580.41;4974317;28;20331;-76
2023/06/17 02:32:31;;;;;;;;;;;;;;;11.31;100.00;101569.88;4969477;28;19932;-76
2023/06/17 02:34:57;;;;;;;;;;;;;;;11.26;100.00;101572.84;4989353;28;20246;-76
2023/06/17 02:37:22;;;;;;;;;;;;;;;11.23;100.00;101570.41;4976232;28;19925;-76
2023/06/17 02:39:47;;;;;;;;;;;;;;;11.22;100.00;101569.53;4974344;28;20458;-76
2023/06/17 02:42:13;;;;;;;;;;;;;;;11.24;100.00;101566.75;4971993;28;19948;-76
2023/06/17 02:44:38;;;;;;;;;;;;;;;11.22;100.00;101566.84;4974812;28;20312;-76
2023/06/17 02:47:03;;;;;;;;;;;;;;;11.20;100.00;101567.94;4987574;28;20572;-76
2023/06/17 02:49:28;;;;;;;;;;;;;;;11.13;100.00;101563.94;4972247;28;20219;-76
2023/06/17 02:51:54;;;;;;;;;;;;;;;11.09;100.00;101569.50;4976166;28;20691;-76
2023/06/17 02:54:19;;;;;;;;;;;;;;;11.05;100.00;101568.00;4974653;28;20048;-76
2023/06/17 02:56:44;;;;;;;;;;;;;;;11.01;100.00;101561.09;4971175;28;19964;-76
2023/06/17 02:59:10;;;;;;;;;;;;;;;10.99;100.00;101559.50;4970269;28;19925;-76
2023/06/17 03:01:40;;;;;;;;;;;;;;;10.97;100.00;101562.31;4969192;28;20012;-76
2023/06/17 03:04:05;;;;;;;;;;;;;;;10.98;100.00;101563.16;4981774;28;19929;-76
2023/06/17 03:06:33;;;;;;;;;;;;;;;10.97;100.00;101558.75;4971054;28;20296;-76
2023/06/17 03:08:59;;;;;;;;;;;;;;;10.95;100.00;101562.41;4973295;28;20939;-76
2023/06/17 03:11:24;;;;;;;;;;;;;;;10.94;100.00;101560.66;4972023;28;19922;-76
2023/06/17 03:13:50;;;;;;;;;;;;;;;10.88;100.00;101562.91;4971167;28;20063;-76
2023/06/17 03:16:16;;;;;;;;;;;;;;;10.82;100.00;101560.63;4971024;28;20391;-76
2023/06/17 03:18:42;;;;;;;;;;;;;;;10.83;100.00;101559.69;4974360;28;20326;-75
2023/06/17 03:21:07;;;;;;;;;;;;;;;10.71;100.00;101540.75;4972972;28;20390;-75
2023/06/17 03:23:32;;;;;;;;;;;;;;;10.89;100.00;101565.50;4973720;28;21106;-76
2023/06/17 03:25:57;;;;;;;;;;;;;;;10.90;100.00;101558.31;4987273;28;19933;-76
2023/06/17 03:28:22;;;;;;;;;;;;;;;10.90;100.00;101559.16;4969755;28;20028;-75
2023/06/17 03:30:48;;;;;;;;;;;;;;;10.90;100.00;101555.63;4972923;28;19960;-76
2023/06/17 03:33:13;;;;;;;;;;;;;;;10.88;100.00;101560.22;4971985;28;20024;-76
2023/06/17 03:35:38;;;;;;;;;;;;;;;10.85;100.00;101555.94;4978095;28;19933;-76
2023/06/17 03:38:04;;;;;;;;;;;;;;;10.79;100.00;101559.88;4978431;28;19951;-76
2023/06/17 03:40:29;;;;;;;;;;;;;;;10.76;100.00;101557.41;4983414;28;19929;-76
2023/06/17 03:42:54;;;;;;;;;;;;;;;10.74;100.00;101555.78;4979029;28;20041;-76
2023/06/17 03:45:20;;;;;;;;;;;;;;;10.73;100.00;101559.44;4979471;28;19969;-76
2023/06/17 03:47:46;;;;;;;;;;;;;;;10.74;100.00;101564.69;4976485;28;20761;-76
2023/06/17 03:50:11;;;;;;;;;;;;;;;10.76;100.00;101564.59;4979462;28;19936;-76
2023/06/17 03:52:36;;;;;;;;;;;;;;;10.79;100.00;101564.41;4977734;28;19968;-76
2023/06/17 03:55:01;;;;;;;;;;;;;;;10.78;100.00;101563.53;4978438;28;20079;-76
2023/06/17 03:57:27;;;;;;;;;;;;;;;10.77;100.00;101569.03;4976934;28;20332;-76
2023/06/17 03:59:52;;;;;;;;;;;;;;;10.79;100.00;101553.66;4970048;28;19968;-76
2023/06/17 04:02:17;;;;;;;;;;;;;;;10.81;100.00;101551.75;4976892;28;20333;-75
2023/06/17 04:04:43;;;;;;;;;;;;;;;10.82;100.00;101553.47;4977485;28;20548;-75
2023/06/17 04:07:08;;;;;;;;;;;;;;;10.82;100.00;101557.97;4977058;28;20424;-75
2023/06/17 04:09:33;;;;;;;;;;;;;;;10.78;100.00;101558.16;4973223;28;19926;-76
2023/06/17 04:11:58;;;;;;;;;;;;;;;10.80;100.00;101555.38;4970982;28;19925;-76
2023/06/17 04:14:23;;;;;;;;;;;;;;;10.83;100.00;101555.19;4976885;28;19968;-76
2023/06/17 04:16:53;;;;;;;;;;;;;;;10.85;100.00;101560.44;4975476;28;20017;-76
2023/06/17 04:19:18;;;;;;;;;;;;;;;10.87;100.00;101562.03;4973263;28;20272;-76
2023/06/17 04:21:44;;;;;;;;;;;;;;;10.90;100.00;101567.22;4969845;28;19922;-76
2023/06/17 04:24:09;;;;;;;;;;;;;;;10.91;100.00;101560.03;4973099;28;20280;-76
2023/06/17 04:26:34;;;;;;;;;;;;;;;10.97;100.00;101569.50;4975892;28;19944;-76
2023/06/17 04:29:00;;;;;;;;;;;;;;;11.05;100.00;101565.31;4989023;28;19964;-76
2023/06/17 04:31:27;;;;;;;;;;;;;;;11.16;100.00;101563.72;4977962;28;20276;-76
2023/06/17 04:33:52;;;;;;;;;;;;;;;11.26;100.00;101564.78;4974057;28;19922;-76
2023/06/17 04:36:17;;;;;;;;;;;;;;;11.36;100.00;101563.19;4970702;28;19948;-76
2023/06/17 04:38:44;;;;;;;;;;;;;;;11.48;100.00;101564.16;4969838;28;20358;-76
2023/06/17 04:41:09;;;;;;;;;;;;;;;11.59;100.00;101559.88;4982828;28;19921;-76
2023/06/17 04:43:36;;;;;;;;;;;;;;;11.56;100.00;101534.03;4970638;28;20378;-76
2023/06/17 04:46:02;;;;;;;;;;;;;;;11.90;100.00;101553.16;4977250;28;20036;-76
2023/06/17 04:48:30;;;;;;;;;;;;;;;12.08;100.00;101556.38;4970910;28;19979;-76
2023/06/17 04:50:56;;;;;;;;;;;;;;;12.23;100.00;101549.00;4974674;28;19922;-76
2023/06/17 04:53:21;;;;;;;;;;;;;;;12.37;100.00;101553.38;4974141;28;19968;-76
2023/06/17 04:55:46;;;;;;;;;;;;;;;12.20;100.00;101506.16;4977525;28;19922;-76
2023/06/17 04:58:12;;;;;;;;;;;;;;;12.62;100.00;101553.34;4975367;28;19921;-76
2023/06/17 05:00:37;;;;;;;;;;;;;;;12.64;100.00;101556.78;4974868;28;19965;-75
2023/06/17 05:03:02;;;;;;;;;;;;;;;12.65;100.00;101556.69;4990237;28;20065;-76
2023/06/17 05:05:27;;;;;;;;;;;;;;;12.72;100.00;101566.00;4977694;28;20336;-76
2023/06/17 05:07:52;;;;;;;;;;;;;;;12.82;100.00;101558.13;4972118;28;20338;-76
2023/06/17 05:10:18;;;;;;;;;;;;;;;12.98;100.00;101552.38;4974716;28;20420;-76
2023/06/17 05:12:43;;;;;;;;;;;;;;;13.15;100.00;101558.34;4972424;28;20388;-76
2023/06/17 05:15:08;;;;;;;;;;;;;;;13.35;100.00;101556.78;4978865;28;19953;-76
2023/06/17 05:17:34;;;;;;;;;;;;;;;13.51;100.00;101556.44;4976534;28;20100;-76
2023/06/17 05:19:59;;;;;;;;;;;;;;;13.65;100.00;101563.44;4974127;28;19926;-76
2023/06/17 05:22:24;;;;;;;;;;;;;;;13.76;100.00;101557.22;4979361;28;20368;-77
2023/06/17 05:24:49;;;;;;;;;;;;;;;13.93;100.00;101570.22;4976836;28;19957;-76
2023/06/17 05:27:15;;;;;;;;;;;;;;;14.05;100.00;101564.78;4972209;28;19969;-76
2023/06/17 05:29:40;;;;;;;;;;;;;;;14.24;100.00;101565.03;4974780;28;19970;-76
2023/06/17 05:32:05;;;;;;;;;;;;;;;14.46;100.00;101562.38;4980513;28;20036;-77
2023/06/17 05:34:30;;;;;;;;;;;;;;;14.62;100.00;101559.25;4973771;28;19925;-76
2023/06/17 05:36:56;;;;;;;;;;;;;;;14.78;100.00;101565.13;4975550;28;19932;-76
2023/06/17 05:39:21;;;;;;;;;;;;;;;14.96;100.00;101557.28;4979879;28;19925;-76
2023/06/17 05:41:46;;;;;;;;;;;;;;;15.13;100.00;101561.25;4977767;28;20417;-77
2023/06/17 05:44:12;;;;;;;;;;;;;;;15.33;100.00;101555.09;4989247;28;20522;-76
2023/06/17 05:46:37;;;;;;;;;;;;;;;15.54;100.00;101555.09;4978703;28;19928;-76
2023/06/17 05:49:02;;;;;;;;;;;;;;;15.71;100.00;101551.75;4974108;28;19961;-77
2023/06/17 05:51:28;;;;;;;;;;;;;;;15.89;100.00;101561.97;4974371;28;19976;-77
2023/06/17 05:53:53;;;;;;;;;;;;;;;16.07;100.00;101566.72;4991905;28;19953;-76
2023/06/17 05:56:18;;;;;;;;;;;;;;;16.22;100.00;101568.03;4978568;28;19926;-77
2023/06/17 05:58:43;;;;;;;;;;;;;;;16.38;100.00;101570.22;4977762;28;19925;-77
2023/06/17 06:01:09;;;;;;;;;;;;;;;16.55;100.00;101565.13;4972320;28;20288;-77
2023/06/17 06:03:34;;;;;;;;;;;;;;;16.68;100.00;101562.13;4970988;28;20502;-76
2023/06/17 06:05:59;;;;;;;;;;;;;;;16.82;100.00;101563.56;4979477;28;19928;-77
2023/06/17 06:08:25;;;;;;;;;;;;;;;16.99;100.00;101570.13;4979902;28;20418;-76
2023/06/17 06:10:50;;;;;;;;;;;;;;;17.18;100.00;101569.25;4955656;28;19965;-77
2023/06/17 06:13:15;;;;;;;;;;;;;;;17.34;100.00;101564.09;4970828;28;19957;-77
2023/06/17 06:15:40;;;;;;;;;;;;;;;17.49;100.00;101572.59;4978181;28;20024;-77
2023/06/17 06:18:06;;;;;;;;;;;;;;;17.62;100.00;101576.88;4977397;28;19928;-77
2023/06/17 06:20:31;;;;;;;;;;;;;;;17.75;100.00;101568.41;4976845;28;19960;-77
2023/06/17 06:22:57;;;;;;;;;;;;;;;17.92;100.00;101572.19;4975957;28;19965;-76
2023/06/17 06:25:23;;;;;;;;;;;;;;;18.07;100.00;101567.97;4977716;28;20439;-77
2023/06/17 06:27:49;;;;;;;;;;;;;;;18.20;100.00;101567.63;4996293;28;20362;-76
2023/06/17 06:30:15;;;;;;;;;;;;;;;18.34;100.00;101573.56;4958335;28;20020;-77
2023/06/17 06:32:40;;;;;;;;;;;;;;;18.47;100.00;101573.19;4975535;28;20424;-77
2023/06/17 06:35:05;;;;;;;;;;;;;;;18.59;100.00;101571.94;4976840;28;19956;-77
2023/06/17 06:37:31;;;;;;;;;;;;;;;18.70;100.00;101576.28;4977348;28;19965;-77
2023/06/17 06:39:56;;;;;;;;;;;;;;;18.86;100.00;101575.59;4978498;28;20364;-77
2023/06/17 06:42:21;;;;;;;;;;;;;;;18.96;100.00;101570.97;4960555;28;19946;-78
2023/06/17 06:44:48;;;;;;;;;;;;;;;19.03;100.00;101563.00;4958950;28;20287;-77
2023/06/17 06:47:13;;;;;;;;;;;;;;;19.15;98.83;101575.38;4976178;28;20015;-77
2023/06/17 06:49:38;;;;;;;;;;;;;;;19.25;99.36;101564.38;4974805;28;20026;-77
2023/06/17 06:52:03;;;;;;;;;;;;;;;19.38;97.75;101563.97;4972913;28;20070;-77
2023/06/17 06:54:29;;;;;;;;;;;;;;;19.47;93.56;101573.88;4992889;28;19959;-77
2023/06/17 06:56:55;;;;;;;;;;;;;;;19.61;87.76;101577.88;4993415;28;19925;-78
2023/06/17 06:59:20;;;;;;;;;;;;;;;19.74;85.24;101579.31;4972277;28;20384;-77
2023/06/17 07:01:46;;;;;;;;;;;;;;;19.90;84.64;101573.13;4991117;28;19928;-77
2023/06/17 07:04:11;;;;;;;;;;;;;;;19.97;76.45;101576.91;4975189;28;19922;-77
2023/06/17 07:06:36;;;;;;;;;;;;;;;20.07;77.45;101576.78;4970968;28;19926;-77
2023/06/17 07:09:01;;;;;;;;;;;;;;;20.16;71.80;101574.94;4973162;28;19921;-78
2023/06/17 07:11:26;;;;;;;;;;;;;;;20.26;68.91;101583.81;4982303;28;19928;-77
2023/06/17 07:13:52;;;;;;;;;;;;;;;20.41;71.48;101573.09;4967606;28;19925;-77
2023/06/17 07:16:17;;;;;;;;;;;;;;;20.49;68.78;101575.88;4967064;28;19969;-75
2023/06/17 07:18:42;;;;;;;;;;;;;;;20.53;72.59;101571.78;4974564;28;20009;-76
2023/06/17 07:21:07;;;;;;;;;;;;;;;20.68;71.47;101577.44;4971128;28;19921;-74
2023/06/17 07:23:33;;;;;;;;;;;;;;;20.85;72.12;101574.75;4974964;28;19922;-73
2023/06/17 07:25:58;;;;;;;;;;;;;;;20.93;69.06;101574.75;4990066;28;19931;-74
2023/06/17 07:28:23;;;;;;;;;;;;;;;21.05;69.93;101566.22;4979130;28;20560;-74
2023/06/17 07:30:49;;;;;;;;;;;;;;;21.18;74.79;101568.44;4977924;28;20535;-74
2023/06/17 07:33:15;;;;;;;;;;;;;;;21.30;71.94;101563.47;4969775;28;19946;-73
2023/06/17 07:35:40;;;;;;;;;;;;;;;21.39;66.13;101568.75;4973040;28;21913;-73
2023/06/17 07:38:05;;;;;;;;;;;;;;;21.48;61.73;101568.72;4986466;28;19922;-75
2023/06/17 07:40:31;;;;;;;;;;;;;;;21.57;62.75;101568.53;4979594;28;19957;-75
2023/06/17 07:42:56;;;;;;;;;;;;;;;21.67;57.28;101564.78;4978800;28;20293;-74
2023/06/17 07:45:21;;;;;;;;;;;;;;;21.73;56.35;101564.06;4978849;28;19968;-74
2023/06/17 07:47:46;;;;;;;;;;;;;;;21.77;57.70;101561.84;4974634;28;20199;-75
2023/06/17 07:50:11;;;;;;;;;;;;;;;21.89;59.35;101563.16;4968915;28;19976;-74
2023/06/17 07:52:37;;;;;;;;;;;;;;;22.03;56.97;101562.41;4970044;28;19922;-73
2023/06/17 07:55:02;;;;;;;;;;;;;;;22.22;54.41;101564.88;4981824;28;19928;-73
2023/06/17 07:57:28;;;;;;;;;;;;;;;22.35;54.83;101558.84;4982037;28;19961;-74
2023/06/17 07:59:53;;;;;;;;;;;;;;;22.34;51.15;101563.47;4979905;28;19991;-73
2023/06/17 08:02:18;;;;;;;;;;;;;;;22.33;54.72;101557.13;4963327;28;20427;-73
2023/06/17 08:04:44;;;;;;;;;;;;;;;22.41;51.65;101561.69;4974477;28;19932;-74
2023/06/17 08:07:10;;;;;;;;;;;;;;;22.48;60.10;101561.88;4971627;28;19953;-72
2023/06/17 08:09:36;;;;;;;;;;;;;;;22.40;59.87;101551.78;4971313;28;19921;-73
2023/06/17 08:12:01;;;;;;;;;;;;;;;22.53;60.36;101559.41;4971960;28;19948;-74
2023/06/17 08:14:26;;;;;;;;;;;;;;;22.55;55.17;101551.88;4981662;28;19922;-73
2023/06/17 08:16:51;;;;;;;;;;;;;;;22.66;58.18;101555.25;4968066;28;19965;-73
2023/06/17 08:19:16;;;;;;;;;;;;;;;22.57;55.90;101552.56;4987825;28;20241;-73
2023/06/17 08:21:42;;;;;;;;;;;;;;;22.61;55.55;101553.06;4984617;28;20395;-73
2023/06/17 08:24:17;;;;;;;;;;;;;;;22.63;54.49;101556.47;4961514;28;19922;-73
2023/06/17 08:26:43;;;;;;;;;;;;;;;22.68;54.22;101556.75;4967881;28;19984;-74
2023/06/17 08:29:10;;;;;;;;;;;;;;;22.81;58.13;101545.19;4969393;28;20706;-75
2023/06/17 08:31:35;;;;;;;;;;;;;;;22.54;56.27;101550.19;4972382;28;19921;-73
2023/06/17 08:34:00;;;;;;;;;;;;;;;22.62;53.65;101554.75;4990231;28;20327;-72
2023/06/17 08:36:26;;;;;;;;;;;;;;;22.84;53.10;101549.47;4974563;28;20327;-74
2023/06/17 08:38:51;;;;;;;;;;;;;;;23.04;55.97;101545.16;4974913;28;19925;-73
2023/06/17 08:41:16;;;;;;;;;;;;;;;23.20;52.79;101541.41;4978808;28;20526;-73
2023/06/17 08:43:41;;;;;;;;;;;;;;;23.39;52.31;101535.63;4972023;28;19976;-73
2023/06/17 08:46:07;;;;;;;;;;;;;;;23.57;50.35;101538.81;4965111;28;19971;-74
2023/06/17 08:48:32;;;;;;;;;;;;;;;23.72;50.11;101541.56;4967561;28;19917;-73
2023/06/17 08:50:57;;;;;;;;;;;;;;;23.67;47.44;101538.53;4961655;28;20304;-73
2023/06/17 08:53:23;;;;;;;;;;;;;;;23.75;50.50;101537.59;4969043;28;20640;-74
2023/06/17 08:55:48;;;;;;;;;;;;;;;23.86;48.62;101533.50;4980366;28;20403;-75
2023/06/17 08:58:13;;;;;;;;;;;;;;;23.89;47.92;101534.00;4975495;28;19926;-74
2023/06/17 09:00:38;;;;;;;;;;;;;;;24.11;42.36;101540.38;4968817;28;19922;-73
2023/06/17 09:03:05;;;;;;;;;;;;;;;24.08;43.90;101540.81;4986236;28;20269;-74
2023/06/17 09:05:30;;;;;;;;;;;;;;;24.22;46.29;101539.06;4959618;28;19925;-74
2023/06/17 09:07:55;;;;;;;;;;;;;;;24.48;46.19;101534.03;4968109;28;19937;-74
2023/06/17 09:10:20;;;;;;;;;;;;;;;24.55;45.26;101534.97;4969782;28;19933;-73
2023/06/17 09:12:46;;;;;;;;;;;;;;;24.64;45.34;101532.94;4966515;28;19922;-75
2023/06/17 09:15:15;;;;;;;;;;;;;;;24.70;45.26;101530.25;4967788;28;20884;-77
2023/06/17 09:17:42;;;;;;;;;;;;;;;24.81;46.20;101539.03;4968153;28;20038;-74
2023/06/17 09:20:16;;;;;;;;;;;;;;;24.86;44.40;101537.41;4968660;28;19922;-74
2023/06/17 09:22:45;;;;;;;;;;;;;;;25.12;42.53;101535.09;4974928;28;19988;-74
2023/06/17 09:25:14;;;;;;;;;;;;;;;25.14;43.62;101536.56;4974395;28;19929;-73
2023/06/17 09:27:49;;;;;;;;;;;;;;;25.30;41.53;101542.78;4986206;28;19972;-73
2023/06/17 09:30:15;;;;;;;;;;;;;;;25.26;40.87;101545.09;4988341;28;19925;-74
2023/06/17 09:32:41;;;;;;;;;;;;;;;25.13;43.17;101534.88;4973959;28;19957;-73
2023/06/17 09:35:07;;;;;;;;;;;;;;;25.30;43.66;101535.41;4977543;28;19922;-73
2023/06/17 09:37:32;;;;;;;;;;;;;;;25.37;43.27;101537.38;4972611;28;19937;-72
2023/06/17 09:39:58;;;;;;;;;;;;;;;25.22;42.85;101516.31;4973095;28;19976;-74
2023/06/17 09:42:23;;;;;;;;;;;;;;;25.47;38.83;101535.13;4969772;28;19932;-73
2023/06/17 09:44:49;;;;;;;;;;;;;;;25.60;43.39;101548.09;4990482;28;19976;-73
2023/06/17 09:47:15;;;;;;;;;;;;;;;25.79;41.43;101543.75;4972470;28;20040;-73
2023/06/17 09:49:43;;;;;;;;;;;;;;;25.85;40.16;101536.59;4973894;28;19929;-73
2023/06/17 09:52:09;;;;;;;;;;;;;;;25.90;40.84;101532.19;4970324;28;20406;-72
2023/06/17 09:54:34;;;;;;;;;;;;;;;25.97;44.00;101529.44;4972570;28;19926;-72
2023/06/17 09:57:01;;;;;;;;;;;;;;;26.12;43.45;101532.06;4973659;28;20031;-73
2023/06/17 09:59:26;;;;;;;;;;;;;;;26.19;38.14;101540.34;4969549;28;20215;-74
2023/06/17 10:01:54;;;;;;;;;;;;;;;26.20;40.87;101534.66;4970536;28;19961;-71
2023/06/17 10:04:20;;;;;;;;;;;;;;;26.34;40.63;101531.91;4964295;28;19965;-72
2023/06/17 10:06:46;;;;;;;;;;;;;;;26.36;38.56;101540.81;4988176;28;20012;-72
2023/06/17 10:09:12;;;;;;;;;;;;;;;26.52;40.06;101535.97;4977687;28;19926;-72
2023/06/17 10:11:38;;;;;;;;;;;;;;;26.68;40.84;101537.47;4964745;28;19980;-71
2023/06/17 10:14:04;;;;;;;;;;;;;;;26.90;39.20;101530.72;4963866;28;19926;-69
2023/06/17 10:16:31;;;;;;;;;;;;;;;27.09;37.07;101533.72;4968309;28;19933;-70
2023/06/17 10:18:57;;;;;;;;;;;;;;;26.97;40.89;101530.75;4987099;28;19949;-70
2023/06/17 10:21:23;;;;;;;;;;;;;;;27.01;40.38;101528.41;4970929;28;20004;-70
2023/06/17 10:23:48;;;;;;;;;;;;;;;27.28;41.01;101531.13;4984445;28;20032;-70
2023/06/17 10:26:13;;;;;;;;;;;;;;;27.41;40.09;101514.59;4980451;28;19959;-69
2023/06/17 10:28:43;;;;;;;;;;;;;;;27.37;37.64;101519.66;4978940;28;19960;-69
2023/06/17 10:31:26;;;;;;;;;;;;;;;27.54;42.10;101517.31;4977942;28;20436;-69
2023/06/17 10:33:52;;;;;;;;;;;;;;;27.57;38.31;101507.75;4973839;28;19922;-69
2023/06/17 10:36:19;;;;;;;;;;;;;;;27.63;38.35;101506.06;4978322;28;19964;-70
2023/06/17 10:38:46;;;;;;;;;;;;;;;27.86;36.46;101510.22;4973792;28;20372;-70
2023/06/17 10:41:12;;;;;;;;;;;;;;;28.17;35.61;101500.31;4979331;28;19918;-71
2023/06/17 10:43:37;;;;;;;;;;;;;;;28.30;35.43;101502.97;4985046;28;20308;-69
2023/06/17 10:46:02;;;;;;;;;;;;;;;28.54;36.17;101497.72;4970091;28;19944;-70
2023/06/17 10:48:32;;;;;;;;;;;;;;;28.80;36.12;101493.94;4977286;28;19944;-70
2023/06/17 10:51:01;;;;;;;;;;;;;;;28.79;32.94;101503.28;4980265;28;19936;-69
2023/06/17 10:53:30;;;;;;;;;;;;;;;28.86;32.24;101504.09;4978604;28;19929;-70
2023/06/17 10:55:59;;;;;;;;;;;;;;;28.86;31.05;101495.81;4982016;28;20024;-70
2023/06/17 10:58:28;;;;;;;;;;;;;;;29.26;32.53;101491.78;4974527;28;19922;-70
2023/06/17 11:01:12;;;;;;;;;;;;;;;29.25;32.08;101492.00;4972232;28;20373;-70
2023/06/17 11:03:37;;;;;;;;;;;;;;;29.50;34.35;101480.06;4980884;28;19926;-70
2023/06/17 11:06:03;;;;;;;;;;;;;;;29.63;35.89;101490.97;4975962;28;19921;-71
2023/06/17 11:08:29;;;;;;;;;;;;;;;29.78;30.60;101487.81;4974029;28;19922;-70
2023/06/17 11:11:04;;;;;;;;;;;;;;;30.04;31.14;101483.84;4976637;28;19932;-70
2023/06/17 11:13:30;;;;;;;;;;;;;;;30.38;31.60;101484.19;4965594;28;20148;-70
2023/06/17 11:15:55;;;;;;;;;;;;;;;30.41;33.51;101482.88;4995090;28;19930;-70
2023/06/17 11:18:21;;;;;;;;;;;;;;;30.67;32.95;101480.78;4958846;28;20753;-70
2023/06/17 11:20:46;;;;;;;;;;;;;;;30.59;37.83;101476.44;4976317;28;19922;-70
2023/06/17 11:23:12;;;;;;;;;;;;;;;30.84;34.39;101474.53;4992608;28;19928;-70
2023/06/17 11:25:38;;;;;;;;;;;;;;;31.14;31.06;101463.31;4979364;28;20582;-73
2023/06/17 11:28:03;;;;;;;;;;;;;;;31.27;33.11;101470.56;4983074;28;19952;-72
2023/06/17 11:30:28;;;;;;;;;;;;;;;30.85;29.09;101471.50;4981886;28;19922;-71
2023/06/17 11:32:54;;;;;;;;;;;;;;;30.88;29.66;101465.50;4986223;28;19922;-72
2023/06/17 11:35:19;;;;;;;;;;;;;;;31.06;28.89;101475.63;4983466;28;20480;-73
2023/06/17 11:37:46;;;;;;;;;;;;;;;31.26;26.82;101468.88;4986215;28;20394;-73
2023/06/17 11:40:11;;;;;;;;;;;;;;;31.65;29.40;101448.88;4972219;28;20020;-72
2023/06/17 11:42:37;;;;;;;;;;;;;;;31.96;28.91;101449.50;4965921;28;19933;-71
2023/06/17 11:45:02;;;;;;;;;;;;;;;32.04;29.92;101448.25;4964499;28;19973;-70
2023/06/17 11:47:34;;;;;;;;;;;;;;;32.15;26.91;101447.34;4971366;28;19928;-70
2023/06/17 11:49:59;;;;;;;;;;;;;;;32.36;27.18;101440.22;4984358;28;20332;-70
2023/06/17 11:52:24;;;;;;;;;;;;;;;32.91;27.41;101440.53;4966014;28;21286;-70
2023/06/17 11:54:50;;;;;;;;;;;;;;;33.32;25.70;101440.25;4966922;28;19961;-71
2023/06/17 11:57:21;;;;;;;;;;;;;;;33.30;24.06;101453.59;4966041;28;19930;-71
2023/06/17 11:59:46;;;;;;;;;;;;;;;33.29;24.20;101446.34;4977167;28;19922;-71
2023/06/17 12:02:12;;;;;;;;;;;;;;;33.37;23.43;101450.63;4966039;28;20284;-71
2023/06/17 12:04:37;;;;;;;;;;;;;;;33.98;24.15;101431.06;4972626;28;19957;-70
2023/06/17 12:07:06;;;;;;;;;;;;;;;34.21;26.04;101424.28;4986497;28;19921;-70
2023/06/17 12:09:34;;;;;;;;;;;;;;;33.98;25.96;101427.41;4961714;28;19922;-70
2023/06/17 12:12:01;;;;;;;;;;;;;;;33.45;23.64;101447.41;4968233;28;19925;-70
2023/06/17 12:14:26;;;;;;;;;;;;;;;33.40;28.62;101408.38;4964054;28;19937;-71
2023/06/17 12:16:52;;;;;;;;;;;;;;;33.98;24.65;101424.63;4969195;28;19965;-70
2023/06/17 12:19:21;;;;;;;;;;;;;;;34.08;26.66;101421.94;4984292;28;19921;-70
2023/06/17 12:21:46;;;;;;;;;;;;;;;34.01;23.30;101430.53;4972386;28;19984;-70
2023/06/17 12:24:13;;;;;;;;;;;;;;;33.76;25.04;101414.34;4971086;28;19927;-70